Weather at Coastal Carolina Regional Airport

Public forecast

Using degrees Fahrenheit for public forecast. Weather courtesy of forecast.io.

Current aviation weather report (METAR) for Coastal Carolina Regional Airport

Retrieved 2020/10/24 05:35 UTC (18 minutes ago):

KEWN 240535Z AUTO 00000KT 1/4SM FG VV004 17/17 A3004 RMK AO2 T01670167

Aviation forecast (TAF) for Coastal Carolina Regional Airport

Retrieved 2020-10-24 00:22 UTC (6 hours ago):

TAF KEWN 232320Z 2400/2424 VRB03KT P6SM SCT250 FM240600 00000KT 3SM BR SCT007 FM240800 00000KT 2SM BR SCT003 BKN005 FM241400 00000KT P6SM SCT150